sensor_id;sensor_type;location;lat;lon;timestamp;pressure;altitude;pressure_sealevel;temperature;humidity
23363;BME280;11853;48.080;11.960;2023-01-30T00:01:26;95338.69;;;-0.23;96.01
23363;BME280;11853;48.080;11.960;2023-01-30T00:03:52;95343.44;;;-0.31;95.35
23363;BME280;11853;48.080;11.960;2023-01-30T00:06:18;95332.94;;;-0.30;96.60
23363;BME280;11853;48.080;11.960;2023-01-30T00:08:45;95336.31;;;-0.28;96.30
23363;BME280;11853;48.080;11.960;2023-01-30T00:11:12;95327.09;;;-0.35;95.97
23363;BME280;11853;48.080;11.960;2023-01-30T00:13:39;95318.69;;;-0.40;95.75
23363;BME280;11853;48.080;11.960;2023-01-30T00:16:05;95314.94;;;-0.34;96.32
23363;BME280;11853;48.080;11.960;2023-01-30T00:18:51;95319.75;;;-0.27;95.51
23363;BME280;11853;48.080;11.960;2023-01-30T00:21:17;95306.72;;;-0.27;96.25
23363;BME280;11853;48.080;11.960;2023-01-30T00:23:43;95307.81;;;-0.31;95.83
23363;BME280;11853;48.080;11.960;2023-01-30T00:26:09;95308.94;;;-0.36;95.70
23363;BME280;11853;48.080;11.960;2023-01-30T00:28:36;95301.97;;;-0.36;96.57
23363;BME280;11853;48.080;11.960;2023-01-30T00:31:02;95299.84;;;-0.28;94.88
23363;BME280;11853;48.080;11.960;2023-01-30T00:33:28;95299.84;;;-0.28;94.89
23363;BME280;11853;48.080;11.960;2023-01-30T00:35:55;95298.13;;;-0.29;94.99
23363;BME280;11853;48.080;11.960;2023-01-30T00:38:22;95295.91;;;-0.36;95.71
23363;BME280;11853;48.080;11.960;2023-01-30T00:40:47;95293.16;;;-0.33;95.66
23363;BME280;11853;48.080;11.960;2023-01-30T00:43:16;95286.03;;;-0.30;94.95
23363;BME280;11853;48.080;11.960;2023-01-30T00:46:02;95274.13;;;-0.35;95.38
23363;BME280;11853;48.080;11.960;2023-01-30T00:48:47;95279.13;;;-0.31;93.85
23363;BME280;11853;48.080;11.960;2023-01-30T00:51:12;95269.28;;;-0.43;95.39
23363;BME280;11853;48.080;11.960;2023-01-30T00:53:38;95265.03;;;-0.44;95.41
23363;BME280;11853;48.080;11.960;2023-01-30T00:56:04;95271.00;;;-0.42;96.00
23363;BME280;11853;48.080;11.960;2023-01-30T00:58:29;95259.44;;;-0.36;95.36
23363;BME280;11853;48.080;11.960;2023-01-30T01:00:55;95265.19;;;-0.47;95.61
23363;BME280;11853;48.080;11.960;2023-01-30T01:03:21;95255.44;;;-0.43;95.50
23363;BME280;11853;48.080;11.960;2023-01-30T01:05:47;95257.88;;;-0.40;95.44
23363;BME280;11853;48.080;11.960;2023-01-30T01:08:13;95248.31;;;-0.40;95.14
23363;BME280;11853;48.080;11.960;2023-01-30T01:10:39;95258.03;;;-0.43;95.39
23363;BME280;11853;48.080;11.960;2023-01-30T01:13:05;95244.63;;;-0.36;95.05
23363;BME280;11853;48.080;11.960;2023-01-30T01:15:31;95248.69;;;-0.30;93.90
23363;BME280;11853;48.080;11.960;2023-01-30T01:17:57;95250.53;;;-0.32;94.47
23363;BME280;11853;48.080;11.960;2023-01-30T01:20:23;95246.88;;;-0.46;95.70
23363;BME280;11853;48.080;11.960;2023-01-30T01:22:56;95230.84;;;-0.55;95.52
23363;BME280;11853;48.080;11.960;2023-01-30T01:25:23;95237.59;;;-0.51;95.48
23363;BME280;11853;48.080;11.960;2023-01-30T01:27:49;95222.81;;;-0.51;95.33
23363;BME280;11853;48.080;11.960;2023-01-30T01:30:15;95219.38;;;-0.51;94.59
23363;BME280;11853;48.080;11.960;2023-01-30T01:32:41;95219.28;;;-0.50;94.92
23363;BME280;11853;48.080;11.960;2023-01-30T01:35:06;95223.63;;;-0.50;94.82
23363;BME280;11853;48.080;11.960;2023-01-30T01:37:32;95229.38;;;-0.43;94.50
23363;BME280;11853;48.080;11.960;2023-01-30T01:39:58;95230.22;;;-0.43;94.57
23363;BME280;11853;48.080;11.960;2023-01-30T01:42:42;95232.75;;;-0.41;93.89
23363;BME280;11853;48.080;11.960;2023-01-30T01:45:20;95231.09;;;-0.42;93.91
23363;BME280;11853;48.080;11.960;2023-01-30T01:48:50;95222.81;;;-0.51;94.07
23363;BME280;11853;48.080;11.960;2023-01-30T01:50:54;95224.72;;;-0.54;94.29
23363;BME280;11853;48.080;11.960;2023-01-30T01:53:23;95219.63;;;-0.57;94.86
23363;BME280;11853;48.080;11.960;2023-01-30T01:55:52;95222.25;;;-0.57;94.65
23363;BME280;11853;48.080;11.960;2023-01-30T01:58:38;95215.06;;;-0.52;94.72
23363;BME280;11853;48.080;11.960;2023-01-30T02:01:06;95200.66;;;-0.59;93.80
23363;BME280;11853;48.080;11.960;2023-01-30T02:03:37;95187.78;;;-0.62;93.96
23363;BME280;11853;48.080;11.960;2023-01-30T02:06:04;95196.59;;;-0.65;93.85
23363;BME280;11853;48.080;11.960;2023-01-30T02:08:37;95193.31;;;-0.69;95.20
23363;BME280;11853;48.080;11.960;2023-01-30T02:11:18;95198.38;;;-0.65;95.21
23363;BME280;11853;48.080;11.960;2023-01-30T02:13:47;95203.72;;;-0.69;94.47
23363;BME280;11853;48.080;11.960;2023-01-30T02:16:15;95196.03;;;-0.72;94.03
23363;BME280;11853;48.080;11.960;2023-01-30T02:18:42;95206.41;;;-0.70;93.81
23363;BME280;11853;48.080;11.960;2023-01-30T02:21:42;95213.28;;;-0.69;93.56
23363;BME280;11853;48.080;11.960;2023-01-30T02:27:27;95217.91;;;-0.74;93.15
23363;BME280;11853;48.080;11.960;2023-01-30T02:32:55;95213.09;;;-1.01;95.34
23363;BME280;11853;48.080;11.960;2023-01-30T02:43:43;95213.22;;;-0.85;95.43
23363;BME280;11853;48.080;11.960;2023-01-30T02:46:21;95214.34;;;-0.91;95.59
23363;BME280;11853;48.080;11.960;2023-01-30T02:49:00;95205.22;;;-0.99;96.60
23363;BME280;11853;48.080;11.960;2023-01-30T02:51:29;95203.91;;;-1.08;96.43
23363;BME280;11853;48.080;11.960;2023-01-30T02:53:59;95207.06;;;-1.01;95.70
23363;BME280;11853;48.080;11.960;2023-01-30T02:56:25;95215.41;;;-0.95;95.21
23363;BME280;11853;48.080;11.960;2023-01-30T02:58:58;95222.53;;;-0.98;94.94
23363;BME280;11853;48.080;11.960;2023-01-30T03:04:20;95226.28;;;-0.86;94.25
23363;BME280;11853;48.080;11.960;2023-01-30T03:07:11;95228.00;;;-0.85;94.36
23363;BME280;11853;48.080;11.960;2023-01-30T03:12:21;95219.44;;;-1.06;96.21
23363;BME280;11853;48.080;11.960;2023-01-30T03:14:59;95224.34;;;-1.00;95.35
23363;BME280;11853;48.080;11.960;2023-01-30T03:17:28;95232.31;;;-1.03;95.23
23363;BME280;11853;48.080;11.960;2023-01-30T03:19:56;95230.56;;;-1.03;95.87
23363;BME280;11853;48.080;11.960;2023-01-30T03:22:22;95216.69;;;-1.03;95.64
23363;BME280;11853;48.080;11.960;2023-01-30T03:24:50;95214.81;;;-1.00;94.89
23363;BME280;11853;48.080;11.960;2023-01-30T03:27:18;95228.03;;;-1.04;94.40
23363;BME280;11853;48.080;11.960;2023-01-30T03:29:44;95219.44;;;-1.06;95.19
23363;BME280;11853;48.080;11.960;2023-01-30T03:32:10;95209.66;;;-1.01;95.45
23363;BME280;11853;48.080;11.960;2023-01-30T03:34:35;95224.22;;;-0.97;95.14
23363;BME280;11853;48.080;11.960;2023-01-30T03:37:01;95208.72;;;-1.00;94.93
23363;BME280;11853;48.080;11.960;2023-01-30T03:39:27;95215.09;;;-1.06;95.46
23363;BME280;11853;48.080;11.960;2023-01-30T03:41:53;95216.63;;;-1.02;94.51
23363;BME280;11853;48.080;11.960;2023-01-30T03:44:19;95208.97;;;-1.05;95.13
23363;BME280;11853;48.080;11.960;2023-01-30T03:46:45;95195.66;;;-0.99;93.88
23363;BME280;11853;48.080;11.960;2023-01-30T03:49:10;95196.78;;;-1.04;94.48
23363;BME280;11853;48.080;11.960;2023-01-30T03:51:36;95201.84;;;-1.01;94.81
23363;BME280;11853;48.080;11.960;2023-01-30T03:54:01;95193.25;;;-1.03;94.39
23363;BME280;11853;48.080;11.960;2023-01-30T03:56:27;95188.84;;;-1.01;94.42
23363;BME280;11853;48.080;11.960;2023-01-30T03:58:52;95196.63;;;-1.01;93.91
23363;BME280;11853;48.080;11.960;2023-01-30T04:01:18;95189.47;;;-0.96;94.01
23363;BME280;11853;48.080;11.960;2023-01-30T04:03:44;95181.03;;;-1.01;94.44
23363;BME280;11853;48.080;11.960;2023-01-30T04:06:10;95181.72;;;-0.98;95.01
23363;BME280;11853;48.080;11.960;2023-01-30T04:08:36;95176.91;;;-1.05;94.66
23363;BME280;11853;48.080;11.960;2023-01-30T04:11:01;95171.59;;;-1.04;95.30
23363;BME280;11853;48.080;11.960;2023-01-30T04:13:27;95157.44;;;-0.98;95.64
23363;BME280;11853;48.080;11.960;2023-01-30T04:16:13;95160.72;;;-0.95;96.25
23363;BME280;11853;48.080;11.960;2023-01-30T04:18:39;95172.53;;;-0.87;95.95
23363;BME280;11853;48.080;11.960;2023-01-30T04:21:05;95165.41;;;-0.84;96.37
23363;BME280;11853;48.080;11.960;2023-01-30T04:23:30;95175.31;;;-0.73;96.49
23363;BME280;11853;48.080;11.960;2023-01-30T04:25:56;95183.47;;;-0.81;96.16
23363;BME280;11853;48.080;11.960;2023-01-30T04:28:21;95201.66;;;-0.79;96.85
23363;BME280;11853;48.080;11.960;2023-01-30T04:30:47;95194.22;;;-0.70;96.70
23363;BME280;11853;48.080;11.960;2023-01-30T04:33:12;95197.59;;;-0.68;95.81
23363;BME280;11853;48.080;11.960;2023-01-30T04:35:38;95195.97;;;-0.70;96.51
23363;BME280;11853;48.080;11.960;2023-01-30T04:38:03;95190.84;;;-0.72;95.29
23363;BME280;11853;48.080;11.960;2023-01-30T04:40:29;95198.22;;;-0.62;95.62
23363;BME280;11853;48.080;11.960;2023-01-30T04:42:54;95179.06;;;-0.61;95.46
23363;BME280;11853;48.080;11.960;2023-01-30T04:45:20;95183.47;;;-0.63;95.03
23363;BME280;11853;48.080;11.960;2023-01-30T04:47:45;95187.78;;;-0.62;95.39
23363;BME280;11853;48.080;11.960;2023-01-30T04:50:11;95173.69;;;-0.58;95.43
23363;BME280;11853;48.080;11.960;2023-01-30T04:52:36;95172.69;;;-0.56;94.27
23363;BME280;11853;48.080;11.960;2023-01-30T04:55:02;95192.91;;;-0.61;95.58
23363;BME280;11853;48.080;11.960;2023-01-30T04:57:27;95187.47;;;-0.56;95.11
23363;BME280;11853;48.080;11.960;2023-01-30T04:59:53;95166.78;;;-0.59;95.01
23363;BME280;11853;48.080;11.960;2023-01-30T05:02:19;95154.38;;;-0.54;94.77
23363;BME280;11853;48.080;11.960;2023-01-30T05:04:44;95137.88;;;-0.55;95.03
23363;BME280;11853;48.080;11.960;2023-01-30T05:07:09;95150.69;;;-0.50;94.67
23363;BME280;11853;48.080;11.960;2023-01-30T05:09:36;95144.53;;;-0.49;94.10
23363;BME280;11853;48.080;11.960;2023-01-30T05:12:01;95143.66;;;-0.48;94.29
23363;BME280;11853;48.080;11.960;2023-01-30T05:14:27;95138.59;;;-0.51;94.13
23363;BME280;11853;48.080;11.960;2023-01-30T05:16:52;95143.19;;;-0.56;93.60
23363;BME280;11853;48.080;11.960;2023-01-30T05:19:19;95146.56;;;-0.54;94.95
23363;BME280;11853;48.080;11.960;2023-01-30T05:21:45;95154.38;;;-0.54;94.69
23363;BME280;11853;48.080;11.960;2023-01-30T05:24:10;95149.47;;;-0.60;94.09
23363;BME280;11853;48.080;11.960;2023-01-30T05:26:36;95131.38;;;-0.63;94.28
23363;BME280;11853;48.080;11.960;2023-01-30T05:29:01;95124.34;;;-0.61;94.10
23363;BME280;11853;48.080;11.960;2023-01-30T05:31:27;95106.59;;;-0.71;94.56
23363;BME280;11853;48.080;11.960;2023-01-30T05:33:52;95093.06;;;-0.77;94.19
23363;BME280;11853;48.080;11.960;2023-01-30T05:36:20;95108.41;;;-0.73;94.05
23363;BME280;11853;48.080;11.960;2023-01-30T05:38:46;95099.25;;;-0.80;94.11
23363;BME280;11853;48.080;11.960;2023-01-30T05:41:13;95100.94;;;-0.79;94.13
23363;BME280;11853;48.080;11.960;2023-01-30T05:43:39;95107.13;;;-0.81;93.80
23363;BME280;11853;48.080;11.960;2023-01-30T05:46:05;95108.59;;;-0.76;93.96
23363;BME280;11853;48.080;11.960;2023-01-30T05:48:32;95102.44;;;-0.75;93.91
23363;BME280;11853;48.080;11.960;2023-01-30T05:50:58;95105.66;;;-0.70;93.45
23363;BME280;11853;48.080;11.960;2023-01-30T05:53:30;95107.38;;;-0.69;93.13
23363;BME280;11853;48.080;11.960;2023-01-30T05:56:01;95099.31;;;-0.81;92.87
23363;BME280;11853;48.080;11.960;2023-01-30T05:58:28;95102.69;;;-0.79;93.14
23363;BME280;11853;48.080;11.960;2023-01-30T06:00:58;95114.88;;;-0.80;93.66
23363;BME280;11853;48.080;11.960;2023-01-30T06:03:23;95114.72;;;-0.77;93.32
23363;BME280;11853;48.080;11.960;2023-01-30T06:05:49;95120.09;;;-0.80;93.74
23363;BME280;11853;48.080;11.960;2023-01-30T06:08:14;95105.91;;;-0.74;93.85
23363;BME280;11853;48.080;11.960;2023-01-30T06:10:40;95096.53;;;-0.61;92.76
23363;BME280;11853;48.080;11.960;2023-01-30T06:13:06;95073.09;;;-0.61;93.00
23363;BME280;11853;48.080;11.960;2023-01-30T06:15:31;95074.34;;;-0.68;92.27
23363;BME280;11853;48.080;11.960;2023-01-30T06:17:57;95083.66;;;-0.64;92.44
23363;BME280;11853;48.080;11.960;2023-01-30T06:20:23;95090.13;;;-0.71;93.09
23363;BME280;11853;48.080;11.960;2023-01-30T06:22:48;95084.16;;;-0.73;92.52
23363;BME280;11853;48.080;11.960;2023-01-30T06:25:14;95084.75;;;-0.68;92.48
23363;BME280;11853;48.080;11.960;2023-01-30T06:27:39;95105.50;;;-0.66;92.37
23363;BME280;11853;48.080;11.960;2023-01-30T06:30:05;95092.00;;;-0.57;92.49
23363;BME280;11853;48.080;11.960;2023-01-30T06:32:31;95092.88;;;-0.57;93.39
23363;BME280;11853;48.080;11.960;2023-01-30T06:34:56;95096.75;;;-0.48;92.88
23363;BME280;11853;48.080;11.960;2023-01-30T06:37:22;95090.00;;;-0.52;92.55
23363;BME280;11853;48.080;11.960;2023-01-30T06:39:47;95077.91;;;-0.53;92.69
23363;BME280;11853;48.080;11.960;2023-01-30T06:42:13;95076.47;;;-0.43;93.35
23363;BME280;11853;48.080;11.960;2023-01-30T06:44:38;95088.50;;;-0.40;93.42
23363;BME280;11853;48.080;11.960;2023-01-30T06:47:04;95085.31;;;-0.46;92.82
23363;BME280;11853;48.080;11.960;2023-01-30T06:49:31;95079.84;;;-0.41;92.90
23363;BME280;11853;48.080;11.960;2023-01-30T06:51:56;95083.88;;;-0.51;92.61
23363;BME280;11853;48.080;11.960;2023-01-30T06:54:22;95104.19;;;-0.58;92.99
23363;BME280;11853;48.080;11.960;2023-01-30T06:56:47;95098.59;;;-0.50;92.91
23363;BME280;11853;48.080;11.960;2023-01-30T06:59:13;95104.47;;;-0.47;92.50
23363;BME280;11853;48.080;11.960;2023-01-30T07:01:39;95102.78;;;-0.48;92.62
23363;BME280;11853;48.080;11.960;2023-01-30T07:04:04;95107.75;;;-0.43;92.71
23363;BME280;11853;48.080;11.960;2023-01-30T07:06:30;95110.97;;;-0.38;92.36
23363;BME280;11853;48.080;11.960;2023-01-30T07:08:56;95112.72;;;-0.38;91.99
23363;BME280;11853;48.080;11.960;2023-01-30T07:11:24;95115.09;;;-0.34;91.99
23363;BME280;11853;48.080;11.960;2023-01-30T07:13:49;95103.75;;;-0.33;91.19
23363;BME280;11853;48.080;11.960;2023-01-30T07:16:15;95109.25;;;-0.21;91.22
23363;BME280;11853;48.080;11.960;2023-01-30T07:18:41;95111.13;;;-0.08;90.61
23363;BME280;11853;48.080;11.960;2023-01-30T07:21:07;95107.50;;;-0.05;90.93
23363;BME280;11853;48.080;11.960;2023-01-30T07:23:32;95104.25;;;0.23;92.76
23363;BME280;11853;48.080;11.960;2023-01-30T07:25:58;95095.38;;;0.26;91.27
23363;BME280;11853;48.080;11.960;2023-01-30T07:28:23;95098.00;;;0.26;91.72
23363;BME280;11853;48.080;11.960;2023-01-30T07:30:49;95094.13;;;0.33;92.13
23363;BME280;11853;48.080;11.960;2023-01-30T07:33:18;95097.34;;;0.38;88.96
23363;BME280;11853;48.080;11.960;2023-01-30T07:35:44;95100.00;;;0.36;88.91
23363;BME280;11853;48.080;11.960;2023-01-30T07:38:10;95092.78;;;0.26;88.05
23363;BME280;11853;48.080;11.960;2023-01-30T07:40:36;95093.78;;;0.07;90.30
23363;BME280;11853;48.080;11.960;2023-01-30T07:43:04;95083.19;;;0.10;89.64
23363;BME280;11853;48.080;11.960;2023-01-30T07:45:39;95093.72;;;0.09;89.68
23363;BME280;11853;48.080;11.960;2023-01-30T07:48:07;95088.41;;;0.10;90.02
23363;BME280;11853;48.080;11.960;2023-01-30T07:50:34;95090.09;;;0.11;90.01
23363;BME280;11853;48.080;11.960;2023-01-30T07:53:03;95083.63;;;0.18;90.34
23363;BME280;11853;48.080;11.960;2023-01-30T07:55:28;95081.34;;;0.28;90.29
23363;BME280;11853;48.080;11.960;2023-01-30T07:57:54;95071.16;;;2.43;100.00
23363;BME280;11853;48.080;11.960;2023-01-30T08:00:20;95057.00;;;3.89;100.00
23363;BME280;11853;48.080;11.960;2023-01-30T08:02:46;95058.84;;;4.97;100.00
23363;BME280;11853;48.080;11.960;2023-01-30T08:05:12;95049.47;;;4.82;81.59
23363;BME280;11853;48.080;11.960;2023-01-30T08:07:37;95049.44;;;3.97;78.07
23363;BME280;11853;48.080;11.960;2023-01-30T08:10:05;95048.22;;;3.52;84.29
23363;BME280;11853;48.080;11.960;2023-01-30T08:12:30;95046.53;;;3.25;87.23
23363;BME280;11853;48.080;11.960;2023-01-30T08:14:56;95047.66;;;3.08;85.50
23363;BME280;11853;48.080;11.960;2023-01-30T08:17:22;95053.59;;;2.85;86.52
23363;BME280;11853;48.080;11.960;2023-01-30T08:19:47;95050.56;;;2.78;91.14
23363;BME280;11853;48.080;11.960;2023-01-30T08:22:14;95052.81;;;3.23;100.00
23363;BME280;11853;48.080;11.960;2023-01-30T08:24:49;95064.88;;;3.12;85.75
23363;BME280;11853;48.080;11.960;2023-01-30T08:27:23;95069.16;;;2.74;82.76
23363;BME280;11853;48.080;11.960;2023-01-30T08:29:49;95075.59;;;2.28;82.01
23363;BME280;11853;48.080;11.960;2023-01-30T08:32:15;95071.16;;;2.01;81.93
23363;BME280;11853;48.080;11.960;2023-01-30T08:34:40;95064.91;;;1.75;83.18
23363;BME280;11853;48.080;11.960;2023-01-30T08:37:06;95054.16;;;1.66;83.05
23363;BME280;11853;48.080;11.960;2023-01-30T08:39:32;95054.94;;;1.53;84.93
23363;BME280;11853;48.080;11.960;2023-01-30T08:41:57;95050.25;;;1.44;84.29
23363;BME280;11853;48.080;11.960;2023-01-30T08:44:23;95049.22;;;1.32;84.38
23363;BME280;11853;48.080;11.960;2023-01-30T08:46:49;95047.06;;;1.25;84.63
23363;BME280;11853;48.080;11.960;2023-01-30T08:49:14;95040.44;;;1.19;86.24
23363;BME280;11853;48.080;11.960;2023-01-30T08:51:40;95048.72;;;1.26;85.35
23363;BME280;11853;48.080;11.960;2023-01-30T08:54:06;95041.38;;;1.18;85.10
23363;BME280;11853;48.080;11.960;2023-01-30T08:56:34;95044.06;;;1.17;86.19
23363;BME280;11853;48.080;11.960;2023-01-30T08:59:00;95035.84;;;1.08;87.00
23363;BME280;11853;48.080;11.960;2023-01-30T09:01:27;95034.63;;;1.14;86.85
23363;BME280;11853;48.080;11.960;2023-01-30T09:03:53;95041.00;;;1.24;86.84
23363;BME280;11853;48.080;11.960;2023-01-30T09:06:18;95041.56;;;1.29;86.85
23363;BME280;11853;48.080;11.960;2023-01-30T09:08:44;95033.81;;;1.28;87.13
23363;BME280;11853;48.080;11.960;2023-01-30T09:11:10;95030.28;;;1.29;86.69
23363;BME280;11853;48.080;11.960;2023-01-30T09:13:37;95027.19;;;1.37;86.79
23363;BME280;11853;48.080;11.960;2023-01-30T09:16:08;95018.63;;;1.49;86.58
23363;BME280;11853;48.080;11.960;2023-01-30T09:18:39;95024.00;;;1.46;87.05
23363;BME280;11853;48.080;11.960;2023-01-30T09:21:09;95026.28;;;1.52;87.56
23363;BME280;11853;48.080;11.960;2023-01-30T09:23:35;95025.59;;;1.63;85.96
23363;BME280;11853;48.080;11.960;2023-01-30T09:26:01;95011.13;;;1.71;84.64
23363;BME280;11853;48.080;11.960;2023-01-30T09:28:27;95023.75;;;1.65;84.62
23363;BME280;11853;48.080;11.960;2023-01-30T09:30:56;95029.16;;;1.76;83.75
23363;BME280;11853;48.080;11.960;2023-01-30T09:33:22;95019.41;;;1.92;83.09
23363;BME280;11853;48.080;11.960;2023-01-30T09:35:48;95032.91;;;2.13;82.76
23363;BME280;11853;48.080;11.960;2023-01-30T09:38:15;95023.47;;;3.30;82.79
23363;BME280;11853;48.080;11.960;2023-01-30T09:46:13;94996.13;;;7.15;66.93
23363;BME280;11853;48.080;11.960;2023-01-30T09:48:56;94983.28;;;7.73;60.14
23363;BME280;11853;48.080;11.960;2023-01-30T09:51:36;94986.06;;;8.12;60.92
23363;BME280;11853;48.080;11.960;2023-01-30T09:54:18;94982.31;;;8.94;59.30
23363;BME280;11853;48.080;11.960;2023-01-30T09:57:09;94983.56;;;9.09;56.24
23363;BME280;11853;48.080;11.960;2023-01-30T10:02:51;94970.59;;;9.82;55.25
23363;BME280;11853;48.080;11.960;2023-01-30T10:05:18;94967.22;;;9.43;52.93
23363;BME280;11853;48.080;11.960;2023-01-30T10:10:32;94976.91;;;8.16;58.14
23363;BME280;11853;48.080;11.960;2023-01-30T10:16:17;94968.34;;;7.11;60.44
23363;BME280;11853;48.080;11.960;2023-01-30T10:22:12;94972.56;;;6.81;63.09
23363;BME280;11853;48.080;11.960;2023-01-30T10:24:56;94976.91;;;6.71;63.59
23363;BME280;11853;48.080;11.960;2023-01-30T10:27:29;94980.50;;;6.38;63.96
23363;BME280;11853;48.080;11.960;2023-01-30T10:29:58;94957.69;;;6.16;64.78
23363;BME280;11853;48.080;11.960;2023-01-30T10:32:32;94943.81;;;6.46;64.99
23363;BME280;11853;48.080;11.960;2023-01-30T10:35:30;94936.16;;;7.17;61.81
23363;BME280;11853;48.080;11.960;2023-01-30T10:38:18;94913.44;;;7.97;60.59
23363;BME280;11853;48.080;11.960;2023-01-30T10:40:57;94897.41;;;8.58;57.65
23363;BME280;11853;48.080;11.960;2023-01-30T10:43:34;94913.50;;;9.13;58.33
23363;BME280;11853;48.080;11.960;2023-01-30T10:48:57;94918.34;;;10.30;56.19
23363;BME280;11853;48.080;11.960;2023-01-30T10:54:15;94913.31;;;10.54;53.49
23363;BME280;11853;48.080;11.960;2023-01-30T10:57:00;94909.00;;;10.26;54.10
23363;BME280;11853;48.080;11.960;2023-01-30T10:59:44;94899.00;;;10.20;53.50
23363;BME280;11853;48.080;11.960;2023-01-30T11:02:43;94886.94;;;10.07;55.81
23363;BME280;11853;48.080;11.960;2023-01-30T11:05:17;94898.09;;;10.01;55.63
23363;BME280;11853;48.080;11.960;2023-01-30T11:07:46;94901.94;;;9.89;56.70
23363;BME280;11853;48.080;11.960;2023-01-30T11:10:19;94894.38;;;9.66;56.56
23363;BME280;11853;48.080;11.960;2023-01-30T11:12:45;94888.75;;;9.05;58.23
23363;BME280;11853;48.080;11.960;2023-01-30T11:15:11;94878.03;;;8.28;61.75
23363;BME280;11853;48.080;11.960;2023-01-30T11:17:41;94866.16;;;8.03;64.38
23363;BME280;11853;48.080;11.960;2023-01-30T11:22:51;94848.84;;;8.59;63.69
23363;BME280;11853;48.080;11.960;2023-01-30T11:25:21;94835.63;;;8.40;64.39
23363;BME280;11853;48.080;11.960;2023-01-30T11:28:00;94842.66;;;8.00;66.23
23363;BME280;11853;48.080;11.960;2023-01-30T11:30:34;94835.78;;;7.59;67.42
23363;BME280;11853;48.080;11.960;2023-01-30T11:35:34;94818.63;;;7.43;69.52
23363;BME280;11853;48.080;11.960;2023-01-30T11:38:20;94824.38;;;7.18;70.24
23363;BME280;11853;48.080;11.960;2023-01-30T11:40:47;94821.09;;;6.95;71.38
23363;BME280;11853;48.080;11.960;2023-01-30T11:43:14;94825.13;;;6.68;72.92
23363;BME280;11853;48.080;11.960;2023-01-30T11:45:46;94817.69;;;6.52;74.59
23363;BME280;11853;48.080;11.960;2023-01-30T11:48:19;94812.66;;;6.70;75.26
23363;BME280;11853;48.080;11.960;2023-01-30T11:50:49;94813.69;;;6.58;74.78
23363;BME280;11853;48.080;11.960;2023-01-30T11:56:04;94795.41;;;6.87;74.08
23363;BME280;11853;48.080;11.960;2023-01-30T11:58:32;94777.13;;;6.74;73.88
23363;BME280;11853;48.080;11.960;2023-01-30T12:00:59;94771.69;;;6.66;75.21
23363;BME280;11853;48.080;11.960;2023-01-30T12:03:26;94775.22;;;6.76;75.11
23363;BME280;11853;48.080;11.960;2023-01-30T12:05:54;94779.09;;;6.72;74.97
23363;BME280;11853;48.080;11.960;2023-01-30T12:08:41;94778.16;;;6.83;75.10
23363;BME280;11853;48.080;11.960;2023-01-30T12:11:24;94781.13;;;6.69;75.06
23363;BME280;11853;48.080;11.960;2023-01-30T12:13:51;94770.16;;;6.43;75.59
23363;BME280;11853;48.080;11.960;2023-01-30T12:24:15;94776.38;;;5.68;80.65
23363;BME280;11853;48.080;11.960;2023-01-30T12:26:50;94769.25;;;5.58;81.24
23363;BME280;11853;48.080;11.960;2023-01-30T12:29:36;94757.06;;;5.46;81.80
23363;BME280;11853;48.080;11.960;2023-01-30T12:32:13;94754.69;;;5.32;81.76
23363;BME280;11853;48.080;11.960;2023-01-30T12:34:40;94749.47;;;5.09;82.74
23363;BME280;11853;48.080;11.960;2023-01-30T12:45:22;94744.03;;;5.01;84.75
23363;BME280;11853;48.080;11.960;2023-01-30T13:04:48;94738.31;;;4.73;85.61
23363;BME280;11853;48.080;11.960;2023-01-30T13:10:38;94741.66;;;4.53;87.70
23363;BME280;11853;48.080;11.960;2023-01-30T13:16:03;94723.50;;;4.50;89.77
23363;BME280;11853;48.080;11.960;2023-01-30T13:21:55;94736.13;;;4.34;94.00
23363;BME280;11853;48.080;11.960;2023-01-30T13:25:03;94729.31;;;4.20;94.81
23363;BME280;11853;48.080;11.960;2023-01-30T13:27:36;94745.91;;;4.20;95.32
23363;BME280;11853;48.080;11.960;2023-01-30T13:30:05;94756.78;;;4.27;94.76
23363;BME280;11853;48.080;11.960;2023-01-30T13:32:47;94772.16;;;4.32;94.73
23363;BME280;11853;48.080;11.960;2023-01-30T13:35:25;94772.44;;;4.40;94.71
23363;BME280;11853;48.080;11.960;2023-01-30T13:37:54;94767.66;;;4.45;94.11
23363;BME280;11853;48.080;11.960;2023-01-30T13:40:24;94768.88;;;4.41;95.06
23363;BME280;11853;48.080;11.960;2023-01-30T13:42:58;94774.13;;;4.41;94.20
23363;BME280;11853;48.080;11.960;2023-01-30T13:45:32;94773.03;;;4.43;94.64
23363;BME280;11853;48.080;11.960;2023-01-30T13:48:19;94776.38;;;4.45;93.80
23363;BME280;11853;48.080;11.960;2023-01-30T13:56:21;94790.31;;;4.35;94.81
23363;BME280;11853;48.080;11.960;2023-01-30T14:04:45;94802.63;;;4.34;94.48
23363;BME280;11853;48.080;11.960;2023-01-30T14:09:42;94795.81;;;4.43;92.71
23363;BME280;11853;48.080;11.960;2023-01-30T14:12:22;94795.13;;;4.41;93.76
23363;BME280;11853;48.080;11.960;2023-01-30T14:17:37;94799.28;;;4.32;94.42
23363;BME280;11853;48.080;11.960;2023-01-30T14:20:16;94796.75;;;4.31;93.69
23363;BME280;11853;48.080;11.960;2023-01-30T14:22:50;94805.22;;;4.23;94.62
23363;BME280;11853;48.080;11.960;2023-01-30T14:30:34;94824.22;;;4.26;94.00
23363;BME280;11853;48.080;11.960;2023-01-30T14:48:50;94867.47;;;5.91;100.00
23363;BME280;11853;48.080;11.960;2023-01-30T14:59:18;94873.50;;;4.69;96.80
23363;BME280;11853;48.080;11.960;2023-01-30T15:04:29;94885.47;;;4.38;98.60
23363;BME280;11853;48.080;11.960;2023-01-30T15:06:57;94885.31;;;4.28;98.58
23363;BME280;11853;48.080;11.960;2023-01-30T15:09:26;94899.41;;;4.27;99.23
23363;BME280;11853;48.080;11.960;2023-01-30T15:12:18;94906.03;;;4.20;100.00
23363;BME280;11853;48.080;11.960;2023-01-30T15:17:35;94918.47;;;4.18;99.54
23363;BME280;11853;48.080;11.960;2023-01-30T15:20:18;94914.72;;;4.10;99.39
23363;BME280;11853;48.080;11.960;2023-01-30T15:25:23;94920.06;;;4.08;99.90
23363;BME280;11853;48.080;11.960;2023-01-30T15:33:22;94942.88;;;3.95;100.00
23363;BME280;11853;48.080;11.960;2023-01-30T15:35:48;94945.63;;;3.93;99.21
23363;BME280;11853;48.080;11.960;2023-01-30T15:38:33;94947.66;;;3.90;100.00
23363;BME280;11853;48.080;11.960;2023-01-30T15:41:03;94960.19;;;3.97;98.99